Time;durP1;ratioP1;P1;durP2;ratioP2;P2;SDS_P1;SDS_P2;PMS_P1;PMS_P2;Temp;Humidity;BMP_temperature;BMP_pressure;BME280_temperature;BME280_humidity;BME280_pressure;Samples;Min_cycle;Max_cycle;Signal;HPM_P1;HPM_P2
2023/10/05 00:01:05;;;;;;;;;;;13.60;99.90;;;;;;5056403;28;25066;-63
2023/10/05 00:03:30;;;;;;;;;;;13.60;99.90;;;;;;5055475;28;25109;-60
2023/10/05 00:08:52;;;;;;;;;;;13.80;99.90;;;;;;5048164;28;25082;-58
2023/10/05 00:11:31;;;;;;;;;;;13.60;99.90;;;;;;5055583;28;25171;-68
2023/10/05 00:13:58;;;;;;;;;;;13.60;99.90;;;;;;5056269;28;25138;-61
2023/10/05 00:16:35;;;;;;;;;;;13.40;99.90;;;;;;5037873;28;25061;-63
2023/10/05 00:19:04;;;;;;;;;;;13.60;99.90;;;;;;5037841;28;25070;-66
2023/10/05 00:21:35;;;;;;;;;;;14.60;99.90;;;;;;5054734;28;25131;-68
2023/10/05 00:24:02;;;;;;;;;;;13.80;99.90;;;;;;5054451;28;25122;-63
2023/10/05 00:26:30;;;;;;;;;;;13.80;99.90;;;;;;5037093;28;25128;-67
2023/10/05 00:29:18;;;;;;;;;;;13.60;99.90;;;;;;5055372;28;25092;-69
2023/10/05 00:31:44;;;;;;;;;;;13.70;99.90;;;;;;5054997;28;25074;-61
2023/10/05 00:34:21;;;;;;;;;;;13.60;99.90;;;;;;5056082;28;25119;-69
2023/10/05 00:36:50;;;;;;;;;;;13.60;99.90;;;;;;5055043;28;25116;-60
2023/10/05 00:39:21;;;;;;;;;;;13.60;99.90;;;;;;5056971;28;25136;-68
2023/10/05 00:41:50;;;;;;;;;;;13.60;99.90;;;;;;5059877;28;28125;-69
2023/10/05 00:44:19;;;;;;;;;;;13.70;99.90;;;;;;5058575;28;25153;-64
2023/10/05 00:46:48;;;;;;;;;;;13.90;99.90;;;;;;5059648;28;25103;-68
2023/10/05 00:49:19;;;;;;;;;;;13.60;99.90;;;;;;5059039;28;25095;-64
2023/10/05 00:51:55;;;;;;;;;;;14.00;99.90;;;;;;5059167;28;25070;-60
2023/10/05 00:54:29;;;;;;;;;;;13.60;99.90;;;;;;5057255;28;25124;-66
2023/10/05 00:56:55;;;;;;;;;;;13.50;99.90;;;;;;5058338;28;25057;-63
2023/10/05 00:59:21;;;;;;;;;;;13.60;99.90;;;;;;5056499;28;25127;-65
2023/10/05 01:01:58;;;;;;;;;;;13.60;99.90;;;;;;5059308;28;25111;-69
2023/10/05 01:12:45;;;;;;;;;;;13.40;99.90;;;;;;5057969;28;25063;-68
2023/10/05 01:15:16;;;;;;;;;;;13.40;99.90;;;;;;5062905;22;25069;-67
2023/10/05 01:17:42;;;;;;;;;;;13.30;99.90;;;;;;4924991;28;25203;-65
2023/10/05 01:20:26;;;;;;;;;;;14.10;99.90;;;;;;4918111;28;25088;-67
2023/10/05 01:22:57;;;;;;;;;;;13.40;99.90;;;;;;4937328;28;25085;-65
2023/10/05 01:25:25;;;;;;;;;;;13.50;99.90;;;;;;4936817;28;25148;-69
2023/10/05 01:27:50;;;;;;;;;;;13.40;99.90;;;;;;4936864;28;25137;-58
2023/10/05 01:30:16;;;;;;;;;;;13.50;99.90;;;;;;4937621;28;25065;-58
2023/10/05 01:32:42;;;;;;;;;;;13.40;99.90;;;;;;4920276;29;25173;-70
2023/10/05 01:35:09;;;;;;;;;;;13.50;99.90;;;;;;4920352;28;25059;-60
2023/10/05 01:37:36;;;;;;;;;;;13.50;99.90;;;;;;4917593;28;25141;-63
2023/10/05 01:40:14;;;;;;;;;;;13.50;99.90;;;;;;4918576;28;25079;-64
2023/10/05 01:42:44;;;;;;;;;;;13.60;99.90;;;;;;4917594;28;25075;-66
2023/10/05 01:45:15;;;;;;;;;;;13.50;99.90;;;;;;4917803;28;25081;-64
2023/10/05 01:47:43;;;;;;;;;;;13.60;99.90;;;;;;4918214;28;25076;-65
2023/10/05 01:50:16;;;;;;;;;;;14.30;99.90;;;;;;4915925;28;25140;-61
2023/10/05 01:52:41;;;;;;;;;;;13.60;99.90;;;;;;4917528;28;25062;-62
2023/10/05 01:55:08;;;;;;;;;;;14.10;99.90;;;;;;4917266;28;25063;-60
2023/10/05 01:57:35;;;;;;;;;;;13.60;99.90;;;;;;4909431;29;25081;-60
2023/10/05 02:00:00;;;;;;;;;;;14.40;99.90;;;;;;4898388;28;25186;-63
2023/10/05 02:02:28;;;;;;;;;;;13.70;99.90;;;;;;4898308;28;25099;-69
2023/10/05 02:04:54;;;;;;;;;;;14.20;99.90;;;;;;4913101;29;25081;-66
2023/10/05 02:07:21;;;;;;;;;;;13.90;99.90;;;;;;4917260;29;25136;-63
2023/10/05 02:09:49;;;;;;;;;;;13.60;99.90;;;;;;4915255;28;25089;-67
2023/10/05 02:12:14;;;;;;;;;;;13.70;99.90;;;;;;4911156;28;25115;-65
2023/10/05 02:14:41;;;;;;;;;;;13.70;99.90;;;;;;4898783;28;25113;-66
2023/10/05 02:17:10;;;;;;;;;;;13.70;99.90;;;;;;4898598;29;25099;-67
2023/10/05 02:19:38;;;;;;;;;;;13.60;99.90;;;;;;4899008;29;25075;-68
2023/10/05 02:22:10;;;;;;;;;;;13.70;99.90;;;;;;4916249;28;25196;-67
2023/10/05 02:24:36;;;;;;;;;;;13.60;99.90;;;;;;4915403;28;25086;-68
2023/10/05 02:29:29;;;;;;;;;;;14.10;99.90;;;;;;4917669;29;25143;-65
2023/10/05 02:34:35;;;;;;;;;;;13.60;99.90;;;;;;4916721;29;25069;-69
2023/10/05 02:37:01;;;;;;;;;;;13.80;99.90;;;;;;4917173;28;25089;-67
2023/10/05 02:39:32;;;;;;;;;;;14.60;99.90;;;;;;4915412;28;25123;-68
2023/10/05 02:41:58;;;;;;;;;;;13.70;99.90;;;;;;4917878;28;25095;-62
2023/10/05 02:44:30;;;;;;;;;;;13.70;99.90;;;;;;4916959;29;25061;-66
2023/10/05 02:46:55;;;;;;;;;;;14.20;99.90;;;;;;4916784;28;25085;-64
2023/10/05 02:49:24;;;;;;;;;;;13.70;99.90;;;;;;4906524;28;25080;-68
2023/10/05 02:51:52;;;;;;;;;;;14.10;99.90;;;;;;4913327;28;25090;-59
2023/10/05 02:54:18;;;;;;;;;;;13.80;99.90;;;;;;4897179;28;25124;-58
2023/10/05 02:56:44;;;;;;;;;;;13.70;99.90;;;;;;4903457;29;25076;-68
2023/10/05 02:59:10;;;;;;;;;;;13.70;99.90;;;;;;4903187;28;25075;-69
2023/10/05 03:01:37;;;;;;;;;;;14.00;99.90;;;;;;4897277;29;25092;-65
2023/10/05 03:04:04;;;;;;;;;;;14.30;99.90;;;;;;4897017;29;25088;-66
2023/10/05 03:06:30;;;;;;;;;;;13.80;99.90;;;;;;4898044;28;25125;-63
2023/10/05 03:09:01;;;;;;;;;;;13.80;99.90;;;;;;4896226;28;25085;-64
2023/10/05 03:11:33;;;;;;;;;;;13.80;99.90;;;;;;4895666;28;25104;-66
2023/10/05 03:13:59;;;;;;;;;;;13.70;99.90;;;;;;4897944;29;25474;-65
2023/10/05 03:16:27;;;;;;;;;;;13.80;99.90;;;;;;4898118;29;25065;-64
2023/10/05 03:18:53;;;;;;;;;;;13.80;99.90;;;;;;4904209;28;25169;-68
2023/10/05 03:21:18;;;;;;;;;;;13.80;99.90;;;;;;4917401;28;25113;-64
2023/10/05 03:23:45;;;;;;;;;;;13.90;99.90;;;;;;4914823;29;25076;-65
2023/10/05 03:26:13;;;;;;;;;;;13.90;99.90;;;;;;4916770;28;25075;-54
2023/10/05 03:28:41;;;;;;;;;;;13.80;99.90;;;;;;4916091;28;25084;-58
2023/10/05 03:31:14;;;;;;;;;;;13.80;99.90;;;;;;4916899;28;25093;-61
2023/10/05 03:33:39;;;;;;;;;;;13.80;99.90;;;;;;4916019;28;25060;-68
2023/10/05 03:36:14;;;;;;;;;;;13.70;99.90;;;;;;4917445;28;25151;-60
2023/10/05 03:38:41;;;;;;;;;;;13.70;99.90;;;;;;4914787;29;25138;-62
2023/10/05 03:41:13;;;;;;;;;;;13.70;99.90;;;;;;4916343;28;25074;-57
2023/10/05 03:43:39;;;;;;;;;;;13.70;99.90;;;;;;4916798;28;25073;-69
2023/10/05 03:46:06;;;;;;;;;;;13.70;99.90;;;;;;4917003;29;25083;-68
2023/10/05 03:48:32;;;;;;;;;;;14.00;99.90;;;;;;4915281;28;25115;-68
2023/10/05 03:50:58;;;;;;;;;;;14.70;99.90;;;;;;4915671;29;25184;-68
2023/10/05 03:53:24;;;;;;;;;;;13.90;99.90;;;;;;4914397;28;25065;-59
2023/10/05 03:55:51;;;;;;;;;;;13.80;99.90;;;;;;4914106;29;25122;-57
2023/10/05 03:58:17;;;;;;;;;;;13.90;99.90;;;;;;4906084;28;25065;-64
2023/10/05 04:00:48;;;;;;;;;;;13.80;99.90;;;;;;4896859;28;25166;-60
2023/10/05 04:03:14;;;;;;;;;;;15.00;99.90;;;;;;4897391;29;25071;-60
2023/10/05 04:05:40;;;;;;;;;;;13.80;99.90;;;;;;4896707;29;25069;-63
2023/10/05 04:08:16;;;;;;;;;;;13.90;99.90;;;;;;4897445;28;25066;-62
2023/10/05 04:10:49;;;;;;;;;;;13.80;99.90;;;;;;4895968;29;25105;-64
2023/10/05 04:13:20;;;;;;;;;;;13.70;99.90;;;;;;4897529;28;25121;-66
2023/10/05 04:15:46;;;;;;;;;;;14.20;99.90;;;;;;4900610;28;25136;-64
2023/10/05 04:18:14;;;;;;;;;;;13.70;99.90;;;;;;4900128;29;25082;-68
2023/10/05 04:20:43;;;;;;;;;;;13.70;99.90;;;;;;4899727;28;25152;-64
2023/10/05 04:23:18;;;;;;;;;;;13.70;99.90;;;;;;4900216;28;25122;-68
2023/10/05 04:25:51;;;;;;;;;;;13.60;99.90;;;;;;4899418;28;25161;-62
2023/10/05 04:28:16;;;;;;;;;;;13.70;99.90;;;;;;4899849;28;25083;-68
2023/10/05 04:30:42;;;;;;;;;;;13.60;99.90;;;;;;4899829;29;25071;-60
2023/10/05 04:33:08;;;;;;;;;;;13.90;99.90;;;;;;4900477;28;25007;-66
2023/10/05 04:35:42;;;;;;;;;;;13.60;99.90;;;;;;4898119;28;25126;-63
2023/10/05 04:38:10;;;;;;;;;;;13.60;99.90;;;;;;4899876;28;25461;-64
2023/10/05 04:40:38;;;;;;;;;;;13.60;99.90;;;;;;4899652;28;25072;-67
2023/10/05 04:43:05;;;;;;;;;;;13.60;99.90;;;;;;4898248;28;25073;-68
2023/10/05 04:45:31;;;;;;;;;;;13.50;99.90;;;;;;4899647;28;25142;-69
2023/10/05 04:47:59;;;;;;;;;;;13.60;99.90;;;;;;4898606;28;25067;-66
2023/10/05 04:50:26;;;;;;;;;;;13.50;99.90;;;;;;4899742;28;25099;-65
2023/10/05 04:52:52;;;;;;;;;;;13.50;99.90;;;;;;4900516;28;25116;-59
2023/10/05 04:55:31;;;;;;;;;;;13.60;99.90;;;;;;4909740;29;25104;-62
2023/10/05 04:58:14;;;;;;;;;;;13.60;99.90;;;;;;4907747;29;25083;-70
2023/10/05 05:06:32;;;;;;;;;;;13.50;99.90;;;;;;4914509;29;25077;-63
2023/10/05 05:08:38;;;;;;;;;;;13.50;99.90;;;;;;4890771;29;25077;-68
2023/10/05 05:11:08;;;;;;;;;;;14.60;99.90;;;;;;4900476;28;25065;-66
2023/10/05 05:13:34;;;;;;;;;;;13.80;99.90;;;;;;4898036;28;25082;-60
2023/10/05 05:16:00;;;;;;;;;;;13.30;99.90;;;;;;4914259;28;25136;-69
2023/10/05 05:18:25;;;;;;;;;;;13.40;99.90;;;;;;4899315;28;25129;-67
2023/10/05 05:20:53;;;;;;;;;;;13.40;99.90;;;;;;4898937;28;25074;-64
2023/10/05 05:23:19;;;;;;;;;;;13.40;99.90;;;;;;4899390;28;25116;-59
2023/10/05 05:25:48;;;;;;;;;;;13.40;99.90;;;;;;4898259;29;25187;-65
2023/10/05 05:28:15;;;;;;;;;;;13.50;99.90;;;;;;4898397;28;25480;-64
2023/10/05 05:30:40;;;;;;;;;;;13.50;99.90;;;;;;4899057;28;25064;-58
2023/10/05 05:33:10;;;;;;;;;;;13.40;99.90;;;;;;4898921;28;25118;-64
2023/10/05 05:35:46;;;;;;;;;;;13.70;99.90;;;;;;4899372;28;25070;-61
2023/10/05 05:38:11;;;;;;;;;;;13.50;99.90;;;;;;4898591;28;25163;-65
2023/10/05 05:40:37;;;;;;;;;;;13.60;99.90;;;;;;4898499;28;25097;-66
2023/10/05 05:43:11;;;;;;;;;;;13.50;99.90;;;;;;4899995;29;25119;-62
2023/10/05 05:45:42;;;;;;;;;;;13.50;99.90;;;;;;4899343;28;25113;-63
2023/10/05 05:48:09;;;;;;;;;;;13.60;99.90;;;;;;4903801;28;25058;-70
2023/10/05 05:50:39;;;;;;;;;;;13.50;99.90;;;;;;4918682;29;25156;-68
2023/10/05 05:53:06;;;;;;;;;;;13.50;99.90;;;;;;4918034;29;25143;-55
2023/10/05 05:55:31;;;;;;;;;;;13.50;99.90;;;;;;4916041;29;25094;-68
2023/10/05 05:57:58;;;;;;;;;;;13.90;99.90;;;;;;4908073;28;25162;-64
2023/10/05 06:00:23;;;;;;;;;;;13.50;99.90;;;;;;4898736;29;25078;-58
2023/10/05 06:02:49;;;;;;;;;;;13.50;99.90;;;;;;4899373;28;25078;-65
2023/10/05 06:05:16;;;;;;;;;;;13.90;99.90;;;;;;4903576;29;25054;-62
2023/10/05 06:07:42;;;;;;;;;;;13.70;99.90;;;;;;4904985;28;25172;-63
2023/10/05 06:10:12;;;;;;;;;;;13.70;99.90;;;;;;4917970;29;25070;-67
2023/10/05 06:12:42;;;;;;;;;;;13.80;99.90;;;;;;4916997;28;25100;-62
2023/10/05 06:15:13;;;;;;;;;;;13.80;99.90;;;;;;4918484;29;25065;-64
2023/10/05 06:17:39;;;;;;;;;;;13.90;99.90;;;;;;4917388;28;25143;-66
2023/10/05 06:20:14;;;;;;;;;;;14.00;99.90;;;;;;4917281;28;25061;-62
2023/10/05 06:22:42;;;;;;;;;;;14.00;99.90;;;;;;4917079;28;25170;-67
2023/10/05 06:25:09;;;;;;;;;;;14.10;99.90;;;;;;4906163;28;25067;-68
2023/10/05 06:27:36;;;;;;;;;;;14.10;99.90;;;;;;4897091;28;25065;-64
2023/10/05 06:30:06;;;;;;;;;;;14.10;99.90;;;;;;4898588;28;25061;-67
2023/10/05 06:32:31;;;;;;;;;;;14.00;99.90;;;;;;4897911;29;25076;-56
2023/10/05 06:34:57;;;;;;;;;;;14.10;99.90;;;;;;4898386;29;25125;-67
2023/10/05 06:37:25;;;;;;;;;;;14.10;99.90;;;;;;4897669;28;25081;-61
2023/10/05 06:39:54;;;;;;;;;;;14.10;99.90;;;;;;4897985;28;25059;-55
2023/10/05 06:42:20;;;;;;;;;;;14.30;99.90;;;;;;4898539;29;25147;-59
2023/10/05 06:44:46;;;;;;;;;;;14.40;99.90;;;;;;4897906;29;25112;-60
2023/10/05 06:47:35;;;;;;;;;;;14.30;99.90;;;;;;4898384;29;25099;-65
2023/10/05 06:49:58;;;;;;;;;;;14.40;99.90;;;;;;4899815;29;25059;-60
2023/10/05 06:52:24;;;;;;;;;;;14.40;99.90;;;;;;4910659;29;25065;-61
2023/10/05 06:54:50;;;;;;;;;;;14.40;99.90;;;;;;4906567;28;25134;-63
2023/10/05 06:57:16;;;;;;;;;;;14.70;99.90;;;;;;4910177;29;25078;-65
2023/10/05 06:59:42;;;;;;;;;;;14.40;99.90;;;;;;4899204;29;25162;-70
2023/10/05 07:02:08;;;;;;;;;;;14.50;99.90;;;;;;4900086;28;25086;-68
2023/10/05 07:04:33;;;;;;;;;;;14.50;99.90;;;;;;4915964;28;25166;-63
2023/10/05 07:06:59;;;;;;;;;;;14.60;99.90;;;;;;4917126;28;25089;-63
2023/10/05 07:09:26;;;;;;;;;;;14.60;99.90;;;;;;4916906;29;25053;-61
2023/10/05 07:11:52;;;;;;;;;;;14.70;99.90;;;;;;4918712;28;25129;-62
2023/10/05 07:14:19;;;;;;;;;;;14.60;99.90;;;;;;4917441;29;25075;-62
2023/10/05 07:16:45;;;;;;;;;;;14.60;99.90;;;;;;4917866;29;25073;-63
2023/10/05 07:19:11;;;;;;;;;;;14.60;99.90;;;;;;4918257;29;25090;-67
2023/10/05 07:21:37;;;;;;;;;;;14.70;99.90;;;;;;4917304;29;25085;-62
2023/10/05 07:24:04;;;;;;;;;;;14.70;99.90;;;;;;4900141;29;25066;-64
2023/10/05 07:26:30;;;;;;;;;;;14.90;99.90;;;;;;4898638;28;25092;-63
2023/10/05 07:28:55;;;;;;;;;;;15.00;99.90;;;;;;4897690;29;25174;-61
2023/10/05 07:31:22;;;;;;;;;;;15.00;99.90;;;;;;4898160;29;25359;-64
2023/10/05 07:33:48;;;;;;;;;;;15.00;99.90;;;;;;4897096;28;25092;-62
2023/10/05 07:36:14;;;;;;;;;;;15.60;99.90;;;;;;4898380;29;25076;-68
2023/10/05 07:38:40;;;;;;;;;;;15.00;99.90;;;;;;4902524;28;25077;-66
2023/10/05 07:41:07;;;;;;;;;;;15.00;99.90;;;;;;4917064;28;25064;-68
2023/10/05 07:43:34;;;;;;;;;;;15.00;99.90;;;;;;4917646;28;25079;-69
2023/10/05 07:46:00;;;;;;;;;;;15.10;99.90;;;;;;4916352;28;25061;-65
2023/10/05 07:48:26;;;;;;;;;;;15.10;99.90;;;;;;4916923;29;25072;-64
2023/10/05 07:50:52;;;;;;;;;;;15.20;99.90;;;;;;4917002;29;25076;-64
2023/10/05 07:53:17;;;;;;;;;;;14.90;99.90;;;;;;4916745;29;25085;-62
2023/10/05 07:55:43;;;;;;;;;;;15.20;99.90;;;;;;4907014;29;25100;-67
2023/10/05 07:58:08;;;;;;;;;;;15.20;99.90;;;;;;4902047;28;25077;-67
2023/10/05 08:00:34;;;;;;;;;;;15.20;99.90;;;;;;4900881;28;25132;-59
2023/10/05 08:03:00;;;;;;;;;;;15.20;99.90;;;;;;4915267;28;25056;-66
2023/10/05 08:05:26;;;;;;;;;;;15.30;99.90;;;;;;4916241;28;25109;-61
2023/10/05 08:07:51;;;;;;;;;;;15.30;99.90;;;;;;4911708;29;25064;-60
2023/10/05 08:10:18;;;;;;;;;;;15.30;99.90;;;;;;4904481;28;25077;-62
2023/10/05 08:12:50;;;;;;;;;;;15.30;99.90;;;;;;4897707;29;25065;-66
2023/10/05 08:15:19;;;;;;;;;;;15.30;99.90;;;;;;4902263;28;25097;-61
2023/10/05 08:17:45;;;;;;;;;;;15.30;99.90;;;;;;4910288;29;25108;-60
2023/10/05 08:20:11;;;;;;;;;;;15.40;99.90;;;;;;4899428;29;25103;-55
2023/10/05 08:22:37;;;;;;;;;;;15.40;99.90;;;;;;4896722;29;25090;-56
2023/10/05 08:25:10;;;;;;;;;;;15.40;99.90;;;;;;4898597;29;25106;-59
2023/10/05 08:27:37;;;;;;;;;;;15.50;99.90;;;;;;4911980;29;25176;-57
2023/10/05 08:30:03;;;;;;;;;;;15.40;99.90;;;;;;4897072;28;25087;-54
2023/10/05 08:32:32;;;;;;;;;;;15.30;99.90;;;;;;4897374;29;25075;-58
2023/10/05 08:34:58;;;;;;;;;;;15.30;99.90;;;;;;4901604;28;19961;-58
2023/10/05 08:37:23;;;;;;;;;;;15.70;99.90;;;;;;4897955;28;25055;-58
2023/10/05 08:39:51;;;;;;;;;;;15.20;99.90;;;;;;4896426;29;25068;-51
2023/10/05 08:42:17;;;;;;;;;;;15.20;99.90;;;;;;4895739;28;25100;-56
2023/10/05 08:44:43;;;;;;;;;;;15.10;99.90;;;;;;4895782;28;25064;-58
2023/10/05 08:47:10;;;;;;;;;;;15.20;99.90;;;;;;4895960;28;25056;-57
2023/10/05 08:49:36;;;;;;;;;;;15.20;99.90;;;;;;4900309;29;20251;-55
2023/10/05 08:52:13;;;;;;;;;;;15.10;99.90;;;;;;4916198;28;25074;-57
2023/10/05 08:54:39;;;;;;;;;;;15.00;99.90;;;;;;4914247;29;25153;-57
2023/10/05 08:57:10;;;;;;;;;;;15.00;99.90;;;;;;4904743;28;25098;-56
2023/10/05 08:59:45;;;;;;;;;;;14.90;99.90;;;;;;4913910;29;25170;-57
2023/10/05 09:02:11;;;;;;;;;;;15.00;99.90;;;;;;4917995;28;25073;-53
2023/10/05 09:04:47;;;;;;;;;;;14.90;99.90;;;;;;4919853;28;26116;-56
2023/10/05 09:07:26;;;;;;;;;;;14.90;99.90;;;;;;4919239;28;25129;-57
2023/10/05 09:09:54;;;;;;;;;;;14.90;99.90;;;;;;4918918;28;25078;-56
2023/10/05 09:15:10;;;;;;;;;;;14.90;99.90;;;;;;4918038;28;25117;-57
2023/10/05 09:17:35;;;;;;;;;;;14.90;99.90;;;;;;4902102;28;25059;-62
2023/10/05 09:20:21;;;;;;;;;;;14.90;99.90;;;;;;4917153;29;25138;-58
2023/10/05 09:22:47;;;;;;;;;;;14.90;99.90;;;;;;4901321;28;25075;-60
2023/10/05 09:25:15;;;;;;;;;;;15.80;99.90;;;;;;4905013;28;25064;-58
2023/10/05 09:27:50;;;;;;;;;;;14.90;99.90;;;;;;4904455;29;25077;-56
2023/10/05 09:30:20;;;;;;;;;;;15.00;99.90;;;;;;4918196;28;25076;-59
2023/10/05 09:32:46;;;;;;;;;;;15.00;99.90;;;;;;4900518;28;25101;-57
2023/10/05 09:35:26;;;;;;;;;;;15.00;99.90;;;;;;4906613;28;25138;-63
2023/10/05 09:37:52;;;;;;;;;;;15.10;99.90;;;;;;4917273;29;25124;-55
2023/10/05 09:40:18;;;;;;;;;;;15.10;99.90;;;;;;4909422;28;25082;-57
2023/10/05 09:42:44;;;;;;;;;;;15.20;99.90;;;;;;4901566;29;25164;-59
2023/10/05 09:45:12;;;;;;;;;;;15.30;99.90;;;;;;4899956;29;25113;-61
2023/10/05 09:47:39;;;;;;;;;;;15.40;99.90;;;;;;4899224;28;25092;-63
2023/10/05 09:50:09;;;;;;;;;;;15.40;99.90;;;;;;4916918;29;25116;-56
2023/10/05 09:52:38;;;;;;;;;;;15.40;99.90;;;;;;4901592;28;25087;-60
2023/10/05 09:55:05;;;;;;;;;;;15.50;99.90;;;;;;4917894;29;25066;-61
2023/10/05 09:57:31;;;;;;;;;;;15.60;99.90;;;;;;4911094;28;25084;-64
2023/10/05 10:00:08;;;;;;;;;;;15.60;99.90;;;;;;4914818;28;25124;-63
2023/10/05 10:02:35;;;;;;;;;;;15.60;99.90;;;;;;4918411;29;19941;-58
2023/10/05 10:05:30;;;;;;;;;;;15.60;99.90;;;;;;4911526;29;25062;-60
2023/10/05 10:07:57;;;;;;;;;;;15.60;99.90;;;;;;4896026;29;25088;-62
2023/10/05 10:10:24;;;;;;;;;;;15.60;99.90;;;;;;4905957;29;25079;-65
2023/10/05 10:12:51;;;;;;;;;;;15.60;99.90;;;;;;4915256;28;25161;-62
2023/10/05 10:15:28;;;;;;;;;;;15.50;99.90;;;;;;4916852;28;25104;-57
2023/10/05 10:18:06;;;;;;;;;;;15.60;99.90;;;;;;4906223;29;25135;-56
2023/10/05 10:20:35;;;;;;;;;;;15.60;99.90;;;;;;4916898;28;25124;-63
2023/10/05 10:23:08;;;;;;;;;;;15.70;99.90;;;;;;4915957;29;25078;-63
2023/10/05 10:25:38;;;;;;;;;;;15.70;99.90;;;;;;4916225;29;25086;-61
2023/10/05 10:28:15;;;;;;;;;;;15.70;99.90;;;;;;4916950;28;25143;-56
2023/10/05 10:30:47;;;;;;;;;;;15.80;99.90;;;;;;4908529;28;25053;-59
2023/10/05 10:33:27;;;;;;;;;;;15.80;99.90;;;;;;4897208;29;25127;-61
2023/10/05 10:35:55;;;;;;;;;;;15.80;99.90;;;;;;4898328;29;25123;-58
2023/10/05 10:38:21;;;;;;;;;;;15.90;99.90;;;;;;4906570;28;25116;-52
2023/10/05 10:41:06;;;;;;;;;;;15.90;99.90;;;;;;4918534;28;25094;-58
2023/10/05 10:43:32;;;;;;;;;;;15.80;99.90;;;;;;4918060;28;25100;-58
2023/10/05 10:45:59;;;;;;;;;;;15.90;99.90;;;;;;4917301;28;25114;-57
2023/10/05 10:48:29;;;;;;;;;;;16.10;99.90;;;;;;4917256;28;25164;-56
2023/10/05 10:50:59;;;;;;;;;;;16.20;99.90;;;;;;4917395;28;25081;-54
2023/10/05 10:53:25;;;;;;;;;;;16.30;99.90;;;;;;4915047;28;25075;-59
2023/10/05 10:55:58;;;;;;;;;;;16.50;99.90;;;;;;4914143;29;25085;-59
2023/10/05 10:58:31;;;;;;;;;;;16.70;99.90;;;;;;4906157;28;25063;-57
2023/10/05 11:00:59;;;;;;;;;;;16.90;99.90;;;;;;4897547;28;25082;-57
2023/10/05 11:03:26;;;;;;;;;;;17.10;99.90;;;;;;4897532;28;25115;-57
2023/10/05 11:05:54;;;;;;;;;;;17.50;99.90;;;;;;4897606;29;25082;-58
2023/10/05 11:08:20;;;;;;;;;;;18.20;99.90;;;;;;4897136;28;25086;-55
2023/10/05 11:11:15;;;;;;;;;;;17.90;99.90;;;;;;4898710;28;25082;-58
2023/10/05 11:13:44;;;;;;;;;;;17.80;99.90;;;;;;4896718;28;25058;-59
2023/10/05 11:16:09;;;;;;;;;;;17.60;99.90;;;;;;4899082;28;25099;-59
2023/10/05 11:18:39;;;;;;;;;;;17.50;99.90;;;;;;4899701;28;25119;-56
2023/10/05 11:21:05;;;;;;;;;;;17.60;99.90;;;;;;4880932;28;25061;-59
2023/10/05 11:23:41;;;;;;;;;;;17.80;99.90;;;;;;4896664;28;25139;-57
2023/10/05 11:26:26;;;;;;;;;;;17.80;99.90;;;;;;4897983;28;25124;-56
2023/10/05 11:28:52;;;;;;;;;;;17.80;99.90;;;;;;4898958;28;25069;-59
2023/10/05 11:31:26;;;;;;;;;;;17.50;99.90;;;;;;4899241;28;25171;-59
2023/10/05 11:33:56;;;;;;;;;;;17.40;99.90;;;;;;4898681;28;25160;-58
2023/10/05 11:36:27;;;;;;;;;;;17.70;99.90;;;;;;4898529;28;25079;-57
2023/10/05 11:38:59;;;;;;;;;;;17.90;99.90;;;;;;4896619;28;25076;-58
2023/10/05 11:41:28;;;;;;;;;;;18.00;99.90;;;;;;4902250;28;24107;-58
2023/10/05 11:43:55;;;;;;;;;;;17.90;99.90;;;;;;4897916;29;25086;-58
2023/10/05 11:46:42;;;;;;;;;;;17.90;99.90;;;;;;4897223;28;25073;-59
2023/10/05 11:49:10;;;;;;;;;;;17.70;99.90;;;;;;4898109;28;25091;-59
2023/10/05 11:51:42;;;;;;;;;;;17.50;99.90;;;;;;4896396;28;25140;-59
2023/10/05 11:54:08;;;;;;;;;;;17.50;99.90;;;;;;4896067;28;25084;-58
2023/10/05 11:56:34;;;;;;;;;;;17.40;99.90;;;;;;4903507;29;25069;-58
2023/10/05 11:59:00;;;;;;;;;;;17.30;99.90;;;;;;4902976;28;25004;-58
2023/10/05 12:01:26;;;;;;;;;;;17.20;99.90;;;;;;4914775;28;25105;-58
2023/10/05 12:03:52;;;;;;;;;;;17.30;99.90;;;;;;4921727;28;19923;-56
2023/10/05 12:06:23;;;;;;;;;;;17.20;99.90;;;;;;4915683;28;25067;-57
2023/10/05 12:08:53;;;;;;;;;;;17.20;99.90;;;;;;4914422;29;25054;-58
2023/10/05 12:11:23;;;;;;;;;;;17.40;99.90;;;;;;4914877;28;25073;-57
2023/10/05 12:13:49;;;;;;;;;;;17.40;99.90;;;;;;4915609;29;25078;-58
2023/10/05 12:16:16;;;;;;;;;;;17.40;99.90;;;;;;4915423;28;25086;-57
2023/10/05 12:18:42;;;;;;;;;;;17.40;99.90;;;;;;4914199;29;25084;-57
2023/10/05 12:21:09;;;;;;;;;;;17.30;99.90;;;;;;4915288;29;25150;-58
2023/10/05 12:23:35;;;;;;;;;;;17.60;99.90;;;;;;4914568;28;25079;-57
2023/10/05 12:26:03;;;;;;;;;;;17.20;99.90;;;;;;4916014;29;25112;-55
2023/10/05 12:28:32;;;;;;;;;;;17.10;99.90;;;;;;4915336;29;25076;-58
2023/10/05 12:30:58;;;;;;;;;;;17.10;99.90;;;;;;4915825;28;25061;-55
2023/10/05 12:33:23;;;;;;;;;;;17.30;99.90;;;;;;4915127;28;25025;-54
2023/10/05 12:35:52;;;;;;;;;;;17.20;99.90;;;;;;4917285;28;25067;-57
2023/10/05 12:38:21;;;;;;;;;;;17.20;99.90;;;;;;4919978;29;25148;-58
2023/10/05 12:40:47;;;;;;;;;;;17.30;99.90;;;;;;4919246;29;25080;-56
2023/10/05 12:43:16;;;;;;;;;;;17.30;99.90;;;;;;4918587;29;25084;-58
2023/10/05 12:45:43;;;;;;;;;;;17.30;99.90;;;;;;4919033;29;25087;-58
2023/10/05 12:48:08;;;;;;;;;;;17.20;99.90;;;;;;4918335;29;25100;-56
2023/10/05 12:50:34;;;;;;;;;;;17.20;99.90;;;;;;4918783;29;25058;-58
2023/10/05 12:53:00;;;;;;;;;;;17.20;99.90;;;;;;4918341;29;25067;-57
2023/10/05 12:55:32;;;;;;;;;;;17.50;99.90;;;;;;4916833;28;25170;-57
2023/10/05 12:57:57;;;;;;;;;;;17.20;99.90;;;;;;4908714;28;25072;-56
2023/10/05 13:00:36;;;;;;;;;;;17.20;99.90;;;;;;4918970;28;25086;-54
2023/10/05 13:03:01;;;;;;;;;;;17.20;99.90;;;;;;4919609;28;25062;-52
2023/10/05 13:05:39;;;;;;;;;;;17.20;99.90;;;;;;4918469;29;25075;-54
2023/10/05 13:08:06;;;;;;;;;;;17.10;99.90;;;;;;4916439;28;25089;-58
2023/10/05 13:10:32;;;;;;;;;;;17.10;99.90;;;;;;4918602;28;25081;-58
2023/10/05 13:13:00;;;;;;;;;;;17.10;99.90;;;;;;4917617;28;25050;-56
2023/10/05 13:15:31;;;;;;;;;;;17.10;99.90;;;;;;4911513;29;25082;-57
2023/10/05 13:17:57;;;;;;;;;;;17.20;99.90;;;;;;4907159;29;25077;-56
2023/10/05 13:20:24;;;;;;;;;;;17.30;99.90;;;;;;4906098;29;25059;-59
2023/10/05 13:22:53;;;;;;;;;;;17.40;99.90;;;;;;4905917;28;25082;-57
2023/10/05 13:25:22;;;;;;;;;;;17.40;99.90;;;;;;4906567;28;25083;-57
2023/10/05 13:27:48;;;;;;;;;;;17.50;99.90;;;;;;4911613;28;19934;-56
2023/10/05 13:30:22;;;;;;;;;;;17.40;99.90;;;;;;4906878;29;25058;-59
2023/10/05 13:32:50;;;;;;;;;;;17.40;99.90;;;;;;4906028;28;25079;-57
2023/10/05 13:35:19;;;;;;;;;;;17.30;99.90;;;;;;4903930;29;25132;-55
2023/10/05 13:37:44;;;;;;;;;;;17.00;99.90;;;;;;4905576;28;25063;-58
2023/10/05 13:40:15;;;;;;;;;;;16.80;99.90;;;;;;4904811;28;25129;-58
2023/10/05 13:42:41;;;;;;;;;;;16.60;99.90;;;;;;4905113;29;25088;-57
2023/10/05 13:45:10;;;;;;;;;;;16.50;99.90;;;;;;4905256;29;25059;-56
2023/10/05 13:47:36;;;;;;;;;;;16.40;99.90;;;;;;4904917;28;25075;-53
2023/10/05 13:50:08;;;;;;;;;;;16.30;99.90;;;;;;4906397;29;25077;-58
2023/10/05 13:52:34;;;;;;;;;;;16.10;99.90;;;;;;4903831;29;25113;-55
2023/10/05 13:54:59;;;;;;;;;;;16.10;99.90;;;;;;4905484;29;25069;-58
2023/10/05 13:57:28;;;;;;;;;;;16.10;99.90;;;;;;4904399;29;25150;-54
2023/10/05 13:59:54;;;;;;;;;;;16.00;99.90;;;;;;4905167;28;25089;-58
2023/10/05 14:02:20;;;;;;;;;;;16.00;99.90;;;;;;4900839;28;25102;-51
2023/10/05 14:04:45;;;;;;;;;;;16.00;99.90;;;;;;4904514;28;25097;-57
2023/10/05 14:07:12;;;;;;;;;;;16.10;99.90;;;;;;4903638;28;25082;-59
2023/10/05 14:09:43;;;;;;;;;;;16.10;99.90;;;;;;4904882;28;25084;-61
2023/10/05 14:12:10;;;;;;;;;;;16.30;99.90;;;;;;4904122;28;25117;-51
2023/10/05 14:14:36;;;;;;;;;;;16.50;99.90;;;;;;4901607;28;25076;-65
2023/10/05 14:17:06;;;;;;;;;;;16.70;99.90;;;;;;4903902;28;25136;-56
2023/10/05 14:19:33;;;;;;;;;;;16.90;99.90;;;;;;4903313;29;25067;-54
2023/10/05 14:22:03;;;;;;;;;;;17.10;99.90;;;;;;4901893;28;25082;-57
2023/10/05 14:24:32;;;;;;;;;;;17.20;99.90;;;;;;4903085;28;25105;-61
2023/10/05 14:26:59;;;;;;;;;;;17.10;99.90;;;;;;4902066;28;25146;-65
2023/10/05 14:29:34;;;;;;;;;;;17.00;99.90;;;;;;4903414;29;25158;-59
2023/10/05 14:32:04;;;;;;;;;;;16.90;99.90;;;;;;4904378;28;25084;-65
2023/10/05 14:34:31;;;;;;;;;;;16.80;99.90;;;;;;4904327;28;25109;-60
2023/10/05 14:36:58;;;;;;;;;;;16.60;99.90;;;;;;4903852;28;25060;-66
2023/10/05 14:39:32;;;;;;;;;;;16.70;99.90;;;;;;4904046;28;25082;-59
2023/10/05 14:42:01;;;;;;;;;;;16.60;99.90;;;;;;4904891;28;25066;-66
2023/10/05 14:44:28;;;;;;;;;;;16.60;99.90;;;;;;4904596;29;25151;-64
2023/10/05 14:47:04;;;;;;;;;;;16.80;99.90;;;;;;4903318;28;25101;-53
2023/10/05 14:49:31;;;;;;;;;;;16.60;99.90;;;;;;4904316;28;25109;-62